createdAt,value
2022-09-01T00:01:51.542Z,101846.34
2022-09-01T00:04:21.859Z,101843.63
2022-09-01T00:06:50.313Z,101845.47
2022-09-01T00:09:20.452Z,101842.81
2022-09-01T00:11:50.928Z,101847.59
2022-09-01T00:14:23.762Z,101853.28
2022-09-01T00:16:59.989Z,101847.84
2022-09-01T00:19:29.693Z,101849.81
2022-09-01T00:21:58.229Z,101854.28
2022-09-01T00:24:26.807Z,101857.94
2022-09-01T00:26:55.601Z,101855.25
2022-09-01T00:29:25.918Z,101852.50
2022-09-01T00:31:53.832Z,101851.66
2022-09-01T00:34:23.594Z,101850.94
2022-09-01T00:36:51.564Z,101857.41
2022-09-01T00:39:19.423Z,101857.28
2022-09-01T00:41:48.039Z,101849.34
2022-09-01T00:44:19.032Z,101851.13
2022-09-01T00:46:55.262Z,101848.47
2022-09-01T00:49:31.402Z,101842.22
2022-09-01T00:52:03.362Z,101840.56
2022-09-01T00:54:35.211Z,101837.06
2022-09-01T00:57:04.795Z,101843.44
2022-09-01T00:59:33.523Z,101836.19
2022-09-01T01:02:01.319Z,101840.91
2022-09-01T01:04:32.182Z,101838.25
2022-09-01T01:07:01.831Z,101833.75
2022-09-01T01:09:34.182Z,101838.44
2022-09-01T01:12:05.116Z,101836.66
2022-09-01T01:14:37.031Z,101834.84
2022-09-01T01:17:05.465Z,101834.03
2022-09-01T01:20:00.790Z,101827.75
2022-09-01T01:22:54.386Z,101829.53
2022-09-01T01:25:24.339Z,101831.50
2022-09-01T01:27:52.510Z,101830.72
2022-09-01T01:30:23.735Z,101836.25
2022-09-01T01:32:52.745Z,101831.97
2022-09-01T01:35:21.859Z,101835.59
2022-09-01T01:37:50.522Z,101842.88
2022-09-01T01:40:22.254Z,101838.38
2022-09-01T01:42:53.703Z,101840.34
2022-09-01T01:45:24.343Z,101832.38
2022-09-01T01:47:54.270Z,101840.50
2022-09-01T01:50:22.889Z,101844.91
2022-09-01T01:52:51.028Z,101855.81
2022-09-01T01:55:29.188Z,101856.66
2022-09-01T01:57:59.618Z,101854.16
2022-09-01T02:00:32.327Z,101857.78
2022-09-01T02:03:00.459Z,101854.13
2022-09-01T02:05:32.818Z,101854.94
2022-09-01T02:08:04.064Z,101862.16
2022-09-01T02:10:35.017Z,101860.31
2022-09-01T02:13:07.637Z,101857.72
2022-09-01T02:15:44.236Z,101861.34
2022-09-01T02:18:14.401Z,101864.84
2022-09-01T02:20:42.480Z,101863.19
2022-09-01T02:23:11.760Z,101867.69
2022-09-01T02:26:05.124Z,101855.16
2022-09-01T02:28:36.906Z,101853.41
2022-09-01T02:31:08.899Z,101853.34
2022-09-01T02:33:37.987Z,101852.41
2022-09-01T02:36:09.912Z,101854.19
2022-09-01T02:38:41.866Z,101851.53
2022-09-01T02:41:14.480Z,101848.94
2022-09-01T02:43:44.512Z,101848.91
2022-09-01T02:46:12.564Z,101846.22
2022-09-01T02:48:43.534Z,101851.69
2022-09-01T02:51:14.406Z,101849.97
2022-09-01T02:56:14.363Z,101847.38
2022-09-01T02:58:46.912Z,101851.97
2022-09-01T03:01:17.178Z,101853.81
2022-09-01T03:03:45.017Z,101855.72
2022-09-01T03:06:12.846Z,101857.63
2022-09-01T03:08:40.937Z,101854.06
2022-09-01T03:11:13.018Z,101855.03
2022-09-01T03:13:43.597Z,101855.13
2022-09-01T03:16:11.585Z,101860.56
2022-09-01T03:18:40.020Z,101861.47
2022-09-01T03:21:08.387Z,101859.78
2022-09-01T03:23:36.856Z,101863.41
2022-09-01T03:26:05.297Z,101865.22
2022-09-01T03:28:33.014Z,101865.22
2022-09-01T03:31:02.089Z,101864.28
2022-09-01T03:33:29.971Z,101862.53
2022-09-01T03:35:58.254Z,101864.47
2022-09-01T03:38:26.541Z,101872.56
2022-09-01T03:40:58.998Z,101861.91
2022-09-01T03:43:27.808Z,101862.81
2022-09-01T03:46:04.965Z,101859.16
2022-09-01T03:48:33.587Z,101862.78
2022-09-01T03:51:02.744Z,101861.84
2022-09-01T03:53:32.647Z,101860.88
2022-09-01T03:56:01.562Z,101856.53
2022-09-01T03:58:29.315Z,101854.75
2022-09-01T04:01:01.964Z,101859.31
2022-09-01T04:03:34.549Z,101853.06
2022-09-01T04:06:05.400Z,101857.63
2022-09-01T04:08:33.249Z,101848.72
2022-09-01T04:11:02.939Z,101853.31
2022-09-01T04:13:34.911Z,101853.38
2022-09-01T04:16:03.261Z,101847.97
2022-09-01T04:18:31.423Z,101851.63
2022-09-01T04:21:00.742Z,101854.31
2022-09-01T04:23:30.956Z,101851.63
2022-09-01T04:26:08.827Z,101840.94
2022-09-01T04:28:38.927Z,101849.06
2022-09-01T04:31:09.235Z,101845.53
2022-09-01T04:33:40.026Z,101848.38
2022-09-01T04:36:14.750Z,101848.47
2022-09-01T04:38:42.475Z,101844.84
2022-09-01T04:41:10.233Z,101845.72
2022-09-01T04:43:37.936Z,101844.75
2022-09-01T04:46:06.054Z,101851.06
2022-09-01T04:48:35.937Z,101849.31
2022-09-01T04:51:10.473Z,101843.09
2022-09-01T04:53:39.061Z,101849.44
2022-09-01T04:56:09.712Z,101853.94
2022-09-01T04:58:38.787Z,101851.28
2022-09-01T05:01:15.299Z,101848.66
2022-09-01T05:03:43.139Z,101859.44
2022-09-01T05:06:16.087Z,101861.25
2022-09-01T05:08:45.703Z,101852.25
2022-09-01T05:11:17.833Z,101856.75
2022-09-01T05:13:46.507Z,101860.38
2022-09-01T05:16:17.820Z,101858.69
2022-09-01T05:18:50.006Z,101864.06
2022-09-01T05:21:24.583Z,101866.72
2022-09-01T05:23:53.966Z,101866.75
2022-09-01T05:26:26.183Z,101864.09
2022-09-01T05:28:55.783Z,101864.09
2022-09-01T05:31:23.903Z,101865.81
2022-09-01T05:33:52.384Z,101873.00
2022-09-01T05:36:23.515Z,101872.97
2022-09-01T05:38:52.298Z,101872.09
2022-09-01T05:41:23.885Z,101869.41
2022-09-01T05:43:57.799Z,101872.09
2022-09-01T05:46:28.324Z,101869.31
2022-09-01T05:48:57.813Z,101871.03
2022-09-01T05:51:46.270Z,101867.41
2022-09-01T05:54:17.488Z,101874.53
2022-09-01T05:56:46.057Z,101881.63
2022-09-01T05:59:23.401Z,101876.06
2022-09-01T06:01:53.201Z,101879.41
2022-09-01T06:04:22.250Z,101880.09
2022-09-01T06:07:08.813Z,101874.50
2022-09-01T06:09:39.402Z,101881.38
2022-09-01T06:12:09.191Z,101879.47
2022-09-01T06:14:36.968Z,101880.41
2022-09-01T06:17:04.860Z,101885.88
2022-09-01T06:19:36.900Z,101883.25
2022-09-01T06:22:06.277Z,101886.00
2022-09-01T06:24:34.606Z,101880.53
2022-09-01T06:27:02.816Z,101885.84
2022-09-01T06:29:31.277Z,101885.75
2022-09-01T06:32:02.299Z,101885.63
2022-09-01T06:34:30.238Z,101889.06
2022-09-01T06:36:57.926Z,101883.59
2022-09-01T06:39:27.029Z,101889.88
2022-09-01T06:41:55.022Z,101890.69
2022-09-01T06:44:23.428Z,101888.88
2022-09-01T06:46:51.729Z,101899.47
2022-09-01T06:49:21.435Z,101892.94
2022-09-01T06:51:52.725Z,101885.53
2022-09-01T06:54:21.650Z,101878.09
2022-09-01T06:59:38.537Z,101889.63
2022-09-01T07:02:06.598Z,101893.00
2022-09-01T07:04:35.960Z,101900.84
2022-09-01T07:10:17.823Z,101890.53
2022-09-01T07:13:05.446Z,101883.03
2022-09-01T07:16:31.926Z,101882.78
2022-09-01T07:18:25.179Z,101885.22
2022-09-01T07:21:36.152Z,101890.38
2022-09-01T07:24:07.598Z,101879.41
2022-09-01T07:26:32.342Z,101880.91
2022-09-01T07:29:04.347Z,101874.38
2022-09-01T07:32:43.676Z,101883.03
2022-09-01T07:34:40.407Z,101870.28
2022-09-01T07:38:47.838Z,101871.00
2022-09-01T07:42:57.191Z,101885.22
2022-09-01T07:45:34.769Z,101875.78
2022-09-01T07:48:06.706Z,101877.34
2022-09-01T07:51:33.978Z,101881.59
2022-09-01T07:53:31.478Z,101875.91
2022-09-01T07:56:01.281Z,101872.13
2022-09-01T07:58:31.409Z,101871.94
2022-09-01T08:01:02.807Z,101870.81
2022-09-01T08:03:31.680Z,101886.81
2022-09-01T08:06:06.433Z,101878.69
2022-09-01T08:08:35.833Z,101885.78
2022-09-01T08:11:04.911Z,101886.53
2022-09-01T08:13:38.942Z,101879.91
2022-09-01T08:16:18.534Z,101895.00
2022-09-01T08:18:49.189Z,101895.63
2022-09-01T08:21:18.519Z,101891.00
2022-09-01T08:23:47.830Z,101888.16
2022-09-01T08:26:17.251Z,101899.59
2022-09-01T08:28:47.233Z,101889.38
2022-09-01T08:31:26.129Z,101887.28
2022-09-01T08:33:58.302Z,101886.81
2022-09-01T08:36:26.283Z,101878.28
2022-09-01T08:38:54.439Z,101880.59
2022-09-01T08:41:35.193Z,101895.63
2022-09-01T08:44:12.330Z,101881.03
2022-09-01T08:46:43.426Z,101882.75
2022-09-01T08:49:25.204Z,101877.13
2022-09-01T08:51:59.023Z,101872.44
2022-09-01T08:54:37.396Z,101872.16
2022-09-01T08:57:10.959Z,101872.09
2022-09-01T08:59:39.181Z,101873.75
2022-09-01T09:02:26.331Z,101873.44
2022-09-01T09:05:15.625Z,101872.25
2022-09-01T09:08:18.079Z,101875.75
2022-09-01T09:10:56.346Z,101874.72
2022-09-01T09:13:32.153Z,101859.09
2022-09-01T09:16:08.797Z,101862.38
2022-09-01T09:18:59.308Z,101862.91
2022-09-01T09:21:31.052Z,101864.22
2022-09-01T09:24:04.817Z,101851.38
2022-09-01T09:26:48.067Z,101860.47
2022-09-01T09:29:15.942Z,101849.66
2022-09-01T09:31:49.986Z,101851.16
2022-09-01T09:34:32.588Z,101849.53
2022-09-01T09:37:03.381Z,101852.03
2022-09-01T09:42:09.441Z,101845.16
2022-09-01T09:44:44.217Z,101841.41
2022-09-01T09:47:40.253Z,101840.31
2022-09-01T09:50:14.823Z,101830.22
2022-09-01T09:52:46.859Z,101825.44
2022-09-01T09:55:26.852Z,101825.16
2022-09-01T09:57:59.092Z,101827.50
2022-09-01T10:00:27.624Z,101821.13
2022-09-01T10:02:58.583Z,101821.91
2022-09-01T10:05:35.352Z,101816.22
2022-09-01T10:08:04.119Z,101819.59
2022-09-01T10:10:39.698Z,101814.75
2022-09-01T10:13:13.822Z,101805.53
2022-09-01T10:15:44.929Z,101800.88
2022-09-01T10:18:29.028Z,101800.69
2022-09-01T10:21:05.615Z,101800.75
2022-09-01T10:23:37.015Z,101801.03
2022-09-01T10:26:10.670Z,101802.97
2022-09-01T10:28:50.828Z,101797.22
2022-09-01T10:31:23.017Z,101813.97
2022-09-01T10:33:51.331Z,101798.13
2022-09-01T10:36:24.477Z,101797.81
2022-09-01T10:38:58.764Z,101806.56
2022-09-01T10:42:07.627Z,101790.13
2022-09-01T10:44:38.821Z,101789.28
2022-09-01T10:47:14.829Z,101784.66
2022-09-01T10:50:01.228Z,101790.66
2022-09-01T10:52:56.964Z,101792.97
2022-09-01T10:55:29.345Z,101785.56
2022-09-01T10:59:30.307Z,101785.28
2022-09-01T11:01:13.419Z,101783.03
2022-09-01T11:04:01.462Z,101781.66
2022-09-01T11:07:16.844Z,101780.72
2022-09-01T11:09:49.094Z,101778.75
2022-09-01T11:12:40.112Z,101767.75
2022-09-01T11:15:35.566Z,101775.53
2022-09-01T11:18:08.992Z,101774.91
2022-09-01T11:20:39.514Z,101777.19
2022-09-01T11:23:12.624Z,101761.38
2022-09-01T11:25:44.102Z,101763.16
2022-09-01T11:28:37.457Z,101757.09
2022-09-01T11:31:30.144Z,101763.53
2022-09-01T11:34:06.709Z,101749.88
2022-09-01T11:36:36.257Z,101766.03
2022-09-01T11:39:08.410Z,101760.94
2022-09-01T11:41:55.745Z,101752.66
2022-09-01T11:44:28.959Z,101747.69
2022-09-01T11:47:03.140Z,101751.94
2022-09-01T11:49:33.267Z,101752.25
2022-09-01T11:52:02.560Z,101749.81
2022-09-01T11:54:38.516Z,101755.72
2022-09-01T11:57:19.790Z,101746.47
2022-09-01T11:59:47.909Z,101746.63
2022-09-01T12:02:23.138Z,101741.66
2022-09-01T12:04:51.978Z,101727.47
2022-09-01T12:07:31.255Z,101735.25
2022-09-01T12:09:59.238Z,101728.16
2022-09-01T12:12:31.884Z,101727.31
2022-09-01T12:15:06.300Z,101732.34
2022-09-01T12:17:37.119Z,101732.53
2022-09-01T12:20:29.502Z,101721.06
2022-09-01T12:22:58.590Z,101725.13
2022-09-01T12:25:29.033Z,101721.91
2022-09-01T12:27:57.640Z,101719.66
2022-09-01T12:30:27.079Z,101710.09
2022-09-01T12:35:46.610Z,101701.31
2022-09-01T12:38:30.922Z,101696.84
2022-09-01T12:40:59.988Z,101696.56
2022-09-01T12:43:38.776Z,101698.72
2022-09-01T12:46:10.750Z,101696.50
2022-09-01T12:48:42.877Z,101695.16
2022-09-01T12:51:20.128Z,101698.25
2022-09-01T12:53:53.932Z,101682.63
2022-09-01T12:56:29.789Z,101689.16
2022-09-01T12:59:11.914Z,101684.75
2022-09-01T13:01:43.996Z,101676.44
2022-09-01T13:04:25.448Z,101683.94
2022-09-01T13:06:54.195Z,101689.25
2022-09-01T13:09:21.977Z,101688.09
2022-09-01T13:12:06.532Z,101672.06
2022-09-01T13:14:34.989Z,101672.25
2022-09-01T13:17:02.792Z,101670.91
2022-09-01T13:19:31.892Z,101667.50
2022-09-01T13:21:59.713Z,101676.69
2022-09-01T13:24:30.402Z,101663.63
2022-09-01T13:29:48.530Z,101657.41
2022-09-01T13:32:19.131Z,101647.19
2022-09-01T13:34:50.695Z,101647.84
2022-09-01T13:37:19.637Z,101647.03
2022-09-01T13:39:48.609Z,101634.34
2022-09-01T13:42:16.801Z,101640.53
2022-09-01T13:44:46.310Z,101625.06
2022-09-01T13:47:31.161Z,101637.41
2022-09-01T13:50:11.103Z,101633.59
2022-09-01T13:52:40.500Z,101623.22
2022-09-01T13:55:11.045Z,101625.75
2022-09-01T13:57:38.944Z,101639.78
2022-09-01T14:00:10.755Z,101628.31
2022-09-01T14:02:39.635Z,101627.66
2022-09-01T14:05:10.316Z,101626.69
2022-09-01T14:07:38.319Z,101624.53
2022-09-01T14:10:07.597Z,101620.00
2022-09-01T14:12:36.058Z,101624.19
2022-09-01T14:15:15.917Z,101617.88
2022-09-01T14:17:46.316Z,101628.31
2022-09-01T14:20:18.533Z,101630.56
2022-09-01T14:22:46.842Z,101628.44
2022-09-01T14:25:15.496Z,101610.03
2022-09-01T14:27:43.909Z,101601.31
2022-09-01T14:30:15.704Z,101606.88
2022-09-01T14:32:43.675Z,101598.84
2022-09-01T14:35:11.869Z,101598.75
2022-09-01T14:37:41.471Z,101608.34
2022-09-01T14:40:14.709Z,101607.88
2022-09-01T14:42:46.492Z,101603.91
2022-09-01T14:45:16.272Z,101596.38
2022-09-01T14:47:44.434Z,101601.06
2022-09-01T14:50:14.187Z,101594.78
2022-09-01T14:52:45.229Z,101594.00
2022-09-01T14:55:12.958Z,101583.91
2022-09-01T14:57:40.777Z,101589.13
2022-09-01T15:00:12.014Z,101590.41
2022-09-01T15:02:40.679Z,101584.69
2022-09-01T15:05:09.888Z,101577.94
2022-09-01T15:07:38.629Z,101575.78
2022-09-01T15:10:10.389Z,101568.75
2022-09-01T15:12:43.799Z,101571.78
2022-09-01T15:15:11.810Z,101571.06
2022-09-01T15:17:42.242Z,101574.19
2022-09-01T15:20:30.294Z,101567.75
2022-09-01T15:22:58.083Z,101569.63
2022-09-01T15:25:27.466Z,101574.91
2022-09-01T15:27:55.290Z,101570.38
2022-09-01T15:30:23.139Z,101558.81
2022-09-01T15:32:53.096Z,101572.91
2022-09-01T15:35:22.193Z,101565.72
2022-09-01T15:37:52.124Z,101556.41
2022-09-01T15:40:21.279Z,101560.72
2022-09-01T15:42:50.755Z,101555.34
2022-09-01T15:45:20.979Z,101562.75
2022-09-01T15:47:49.276Z,101561.78
2022-09-01T15:50:22.055Z,101561.59
2022-09-01T15:52:52.775Z,101561.69
2022-09-01T15:55:23.341Z,101562.59
2022-09-01T15:57:54.221Z,101556.22
2022-09-01T16:00:23.722Z,101556.22
2022-09-01T16:02:54.317Z,101551.66
2022-09-01T16:05:22.411Z,101548.00
2022-09-01T16:07:51.753Z,101548.19
2022-09-01T16:10:19.614Z,101547.47
2022-09-01T16:12:49.842Z,101546.72
2022-09-01T16:15:21.852Z,101551.50
2022-09-01T16:18:12.160Z,101548.06
2022-09-01T16:20:48.496Z,101542.88
2022-09-01T16:23:19.146Z,101545.78
2022-09-01T16:25:47.884Z,101545.19
2022-09-01T16:28:25.052Z,101528.97
2022-09-01T16:31:00.660Z,101542.19
2022-09-01T16:33:28.587Z,101534.00
2022-09-01T16:36:08.719Z,101533.13
2022-09-01T16:38:45.618Z,101526.94
2022-09-01T16:41:22.439Z,101527.13
2022-09-01T16:44:01.030Z,101528.28
2022-09-01T16:46:35.486Z,101525.97
2022-09-01T16:49:20.038Z,101528.09
2022-09-01T16:51:56.534Z,101531.19
2022-09-01T16:54:31.995Z,101522.44
2022-09-01T16:57:08.902Z,101522.53
2022-09-01T16:59:45.580Z,101527.22
2022-09-01T17:02:31.073Z,101519.03
2022-09-01T17:05:04.816Z,101525.47
2022-09-01T17:07:44.610Z,101524.59
2022-09-01T17:10:23.687Z,101525.56
2022-09-01T17:12:56.177Z,101525.63
2022-09-01T17:15:36.370Z,101519.53
2022-09-01T17:18:21.694Z,101526.16
2022-09-01T17:20:57.902Z,101518.22
2022-09-01T17:23:29.966Z,101517.44
2022-09-01T17:26:03.078Z,101522.19
2022-09-01T17:28:36.015Z,101527.19
2022-09-01T17:31:14.437Z,101525.63
2022-09-01T17:33:58.458Z,101528.47
2022-09-01T17:36:44.645Z,101524.22
2022-09-01T17:39:25.046Z,101522.03
2022-09-01T17:41:57.947Z,101531.28
2022-09-01T17:44:37.438Z,101523.34
2022-09-01T17:47:12.785Z,101528.34
2022-09-01T17:49:52.428Z,101530.38
2022-09-01T17:52:30.093Z,101534.31
2022-09-01T17:55:04.043Z,101532.72
2022-09-01T17:57:38.654Z,101532.25
2022-09-01T18:00:10.790Z,101531.66
2022-09-01T18:02:48.171Z,101524.78
2022-09-01T18:05:20.354Z,101533.13
2022-09-01T18:08:09.249Z,101529.88
2022-09-01T18:10:41.682Z,101531.94
2022-09-01T18:13:30.851Z,101526.78
2022-09-01T18:16:11.329Z,101534.31
2022-09-01T18:18:41.708Z,101529.09
2022-09-01T18:21:15.208Z,101527.66
2022-09-01T18:23:45.636Z,101538.91
2022-09-01T18:26:27.193Z,101541.91
2022-09-01T18:28:55.670Z,101532.19
2022-09-01T18:31:58.767Z,101547.03
2022-09-01T18:34:34.687Z,101546.56
2022-09-01T18:37:12.020Z,101555.00
2022-09-01T18:40:02.321Z,101556.50
2022-09-01T18:42:38.411Z,101556.59
2022-09-01T18:45:20.264Z,101558.56
2022-09-01T18:48:00.085Z,101560.53
2022-09-01T18:50:35.567Z,101559.00
2022-09-01T18:53:20.813Z,101567.31
2022-09-01T18:55:56.283Z,101564.00
2022-09-01T18:58:33.571Z,101563.47
2022-09-01T19:01:06.219Z,101567.38
2022-09-01T19:03:39.850Z,101577.47
2022-09-01T19:06:24.885Z,101574.06
2022-09-01T19:09:08.218Z,101576.34
2022-09-01T19:11:50.068Z,101566.47
2022-09-01T19:14:28.032Z,101567.56
2022-09-01T19:17:10.645Z,101577.78
2022-09-01T19:19:44.229Z,101579.69
2022-09-01T19:22:18.648Z,101573.78
2022-09-01T19:25:14.877Z,101577.59
2022-09-01T19:27:43.937Z,101577.72
2022-09-01T19:30:12.025Z,101576.91
2022-09-01T19:32:40.219Z,101575.34
2022-09-01T19:35:12.697Z,101576.22
2022-09-01T19:37:44.044Z,101585.47
2022-09-01T19:40:15.814Z,101586.84
2022-09-01T19:42:58.744Z,101586.84
2022-09-01T19:45:30.772Z,101588.94
2022-09-01T19:48:04.596Z,101588.19
2022-09-01T19:50:38.038Z,101589.34
2022-09-01T19:53:12.542Z,101590.63
2022-09-01T19:55:47.564Z,101588.78
2022-09-01T19:58:20.136Z,101596.13
2022-09-01T20:00:52.766Z,101585.50
2022-09-01T20:03:26.836Z,101587.34
2022-09-01T20:05:58.227Z,101591.00
2022-09-01T20:08:30.568Z,101582.97
2022-09-01T20:11:03.314Z,101580.47
2022-09-01T20:13:50.979Z,101585.06
2022-09-01T20:16:28.012Z,101582.59
2022-09-01T20:19:02.171Z,101581.81
2022-09-01T20:21:30.148Z,101575.59
2022-09-01T20:24:04.055Z,101581.97
2022-09-01T20:26:40.406Z,101582.00
2022-09-01T20:29:15.386Z,101579.69
2022-09-01T20:31:49.023Z,101578.03
2022-09-01T20:34:26.314Z,101583.47
2022-09-01T20:37:00.315Z,101585.41
2022-09-01T20:39:53.829Z,101580.94
2022-09-01T20:42:32.092Z,101587.19
2022-09-01T20:45:04.375Z,101576.38
2022-09-01T20:47:32.480Z,101578.47
2022-09-01T20:50:02.411Z,101574.00
2022-09-01T20:52:38.213Z,101573.03
2022-09-01T20:55:14.206Z,101579.53
2022-09-01T20:57:57.270Z,101582.38
2022-09-01T21:00:28.079Z,101587.81
2022-09-01T21:03:03.965Z,101585.28
2022-09-01T21:05:41.848Z,101583.69
2022-09-01T21:08:29.551Z,101587.41
2022-09-01T21:11:14.721Z,101592.09
2022-09-01T21:13:53.883Z,101588.47
2022-09-01T21:16:32.541Z,101586.00
2022-09-01T21:19:07.452Z,101587.00
2022-09-01T21:21:39.881Z,101584.28
2022-09-01T21:24:08.813Z,101590.75
2022-09-01T21:26:38.213Z,101591.69
2022-09-01T21:29:20.531Z,101590.84
2022-09-01T21:31:51.489Z,101583.88
2022-09-01T21:34:19.365Z,101583.88
2022-09-01T21:36:47.499Z,101584.91
2022-09-01T21:39:15.450Z,101583.13
2022-09-01T21:41:43.324Z,101574.25
2022-09-01T21:44:13.502Z,101579.81
2022-09-01T21:46:41.802Z,101588.03
2022-09-01T21:49:10.550Z,101577.31
2022-09-01T21:51:38.536Z,101579.25
2022-09-01T21:54:06.590Z,101579.34
2022-09-01T21:56:34.566Z,101579.41
2022-09-01T21:59:02.456Z,101578.75
2022-09-01T22:01:32.104Z,101571.69
2022-09-01T22:04:00.420Z,101579.84
2022-09-01T22:06:28.614Z,101571.72
2022-09-01T22:08:56.431Z,101575.41
2022-09-01T22:11:24.322Z,101568.38
2022-09-01T22:13:52.524Z,101564.81
2022-09-01T22:16:22.353Z,101560.41
2022-09-01T22:18:51.689Z,101567.81
2022-09-01T22:21:20.655Z,101564.22
2022-09-01T22:23:48.598Z,101559.84
2022-09-01T22:26:22.282Z,101560.91
2022-09-01T22:28:50.296Z,101566.44
2022-09-01T22:31:21.046Z,101560.28
2022-09-01T22:33:49.610Z,101578.50
2022-09-01T22:36:24.091Z,101559.59
2022-09-01T22:38:52.284Z,101567.75
2022-09-01T22:41:21.876Z,101565.19
2022-09-01T22:43:50.456Z,101567.03
2022-09-01T22:48:49.194Z,101561.06
2022-09-01T22:51:17.787Z,101568.31
2022-09-01T22:53:48.015Z,101564.75
2022-09-01T22:56:20.275Z,101567.50
2022-09-01T22:58:49.120Z,101564.81
2022-09-01T23:01:20.858Z,101559.56
2022-09-01T23:03:49.234Z,101554.31
2022-09-01T23:06:27.564Z,101553.63
2022-09-01T23:08:57.469Z,101551.84
2022-09-01T23:11:25.625Z,101551.06
2022-09-01T23:13:54.358Z,101553.78
2022-09-01T23:16:24.060Z,101550.28
2022-09-01T23:18:53.041Z,101553.91
2022-09-01T23:21:24.639Z,101544.03
2022-09-01T23:23:58.423Z,101539.66
2022-09-01T23:26:28.151Z,101542.47
2022-09-01T23:28:56.929Z,101545.25
2022-09-01T23:31:27.626Z,101542.66
2022-09-01T23:33:55.683Z,101536.41
2022-09-01T23:36:25.898Z,101537.41
2022-09-01T23:38:54.408Z,101538.25
2022-09-01T23:41:25.401Z,101533.81
2022-09-01T23:43:55.315Z,101533.06
2022-09-01T23:46:25.048Z,101528.59
2022-09-01T23:48:53.456Z,101528.69
2022-09-01T23:51:22.481Z,101527.91
2022-09-01T23:53:51.757Z,101531.72
2022-09-01T23:56:21.544Z,101522.72
2022-09-01T23:58:49.896Z,101522.78
